Terminal Aerodrome Forecast
Issued by NWS

Home | Current Version | Previous Version | Text Only | Print | Product List | Glossary On
Versions: 1 2 3 4 5 6 7 8 9 10 11 12 13 14 15
000
FTUS42 KTBW 011700 RRA
TAFLAL
TAF
KLAL 011741Z 0118/0218 12006KT P6SM SCT035 SCT250
     FM011900 12006KT P6SM VCTS SCT035CB BKN250
     FM020000 VRB03KT P6SM FEW030 BKN250
     FM021400 09006KT P6SM SCT030 SCT250=

USA.gov is the U.S. government's official web portal to all federal, state and local government web resources and services.